createdAt,value
2019-04-14T00:02:38.256Z,31.40
2019-04-14T00:05:12.518Z,29.97
2019-04-14T00:07:43.003Z,29.90
2019-04-14T00:10:14.095Z,30.23
2019-04-14T00:12:44.845Z,29.00
2019-04-14T00:15:24.485Z,31.77
2019-04-14T00:17:47.946Z,29.40
2019-04-14T00:20:18.625Z,29.33
2019-04-14T00:22:49.155Z,34.50
2019-04-14T00:25:19.582Z,32.77
2019-04-14T00:27:50.024Z,33.47
2019-04-14T00:30:23.017Z,33.53
2019-04-14T00:32:57.441Z,31.73
2019-04-14T00:35:34.225Z,32.13
2019-04-14T00:38:23.769Z,30.67
2019-04-14T00:41:13.738Z,30.73
2019-04-14T00:44:01.337Z,29.77
2019-04-14T00:47:00.626Z,33.87
2019-04-14T00:49:31.207Z,30.47
2019-04-14T00:52:01.576Z,30.17
2019-04-14T00:54:32.542Z,31.43
2019-04-14T00:57:03.204Z,30.63
2019-04-14T00:59:33.661Z,33.73
2019-04-14T01:02:04.028Z,30.77
2019-04-14T01:04:34.494Z,33.73
2019-04-14T01:07:04.894Z,34.00
2019-04-14T01:09:35.369Z,34.10
2019-04-14T01:12:08.147Z,35.93
2019-04-14T01:14:38.802Z,35.43
2019-04-14T01:17:09.314Z,33.57
2019-04-14T01:19:39.683Z,33.20
2019-04-14T01:22:10.007Z,31.47
2019-04-14T01:24:40.458Z,31.47
2019-04-14T01:27:10.856Z,33.00
2019-04-14T01:29:41.202Z,32.47
2019-04-14T01:32:11.615Z,32.57
2019-04-14T01:34:43.308Z,36.10
2019-04-14T01:37:13.750Z,35.03
2019-04-14T01:39:44.170Z,34.37
2019-04-14T01:42:15.861Z,35.17
2019-04-14T01:44:46.294Z,35.33
2019-04-14T01:47:16.622Z,35.90
2019-04-14T01:49:47.095Z,34.90
2019-04-14T01:52:36.397Z,34.20
2019-04-14T01:55:41.618Z,33.90
2019-04-14T01:58:29.350Z,36.03
2019-04-14T02:01:12.787Z,39.17
2019-04-14T02:03:43.358Z,37.53
2019-04-14T02:06:13.746Z,34.67
2019-04-14T02:08:44.238Z,35.57
2019-04-14T02:11:15.760Z,38.27
2019-04-14T02:13:46.533Z,36.87
2019-04-14T02:16:25.846Z,36.90
2019-04-14T02:18:51.790Z,34.87
2019-04-14T02:21:21.621Z,34.63
2019-04-14T02:23:52.108Z,37.63
2019-04-14T02:26:24.237Z,35.40
2019-04-14T02:28:54.982Z,36.53
2019-04-14T02:31:48.522Z,34.30
2019-04-14T02:34:41.743Z,32.57
2019-04-14T02:39:41.553Z,38.37
2019-04-14T02:42:26.043Z,36.70
2019-04-14T02:44:38.197Z,38.23
2019-04-14T02:47:18.267Z,34.07
2019-04-14T02:49:43.973Z,38.83
2019-04-14T02:52:11.932Z,35.23
2019-04-14T02:54:51.756Z,36.07
2019-04-14T02:59:49.893Z,36.00
2019-04-14T03:02:40.812Z,35.73
2019-04-14T03:04:56.838Z,36.57
2019-04-14T03:07:26.402Z,36.20
2019-04-14T03:10:06.917Z,33.10
2019-04-14T03:15:01.426Z,34.63
2019-04-14T03:17:58.502Z,35.27
2019-04-14T03:20:40.126Z,35.47
2019-04-14T03:23:19.280Z,37.03
2019-04-14T03:25:56.944Z,35.47
2019-04-14T03:38:54.887Z,38.17
2019-04-14T03:41:25.936Z,36.83
2019-04-14T03:43:46.616Z,39.13
2019-04-14T03:46:43.369Z,37.00
2019-04-14T03:49:01.681Z,35.43
2019-04-14T03:54:12.439Z,37.03
2019-04-14T03:56:45.099Z,36.23
2019-04-14T03:59:17.367Z,65.90
2019-04-14T04:01:48.012Z,62.67
2019-04-14T04:04:18.524Z,37.17
2019-04-14T04:06:48.935Z,37.10
2019-04-14T04:09:21.462Z,36.07
2019-04-14T04:11:52.022Z,39.80
2019-04-14T04:14:22.509Z,36.13
2019-04-14T04:17:10.686Z,35.23
2019-04-14T04:19:51.712Z,37.73
2019-04-14T04:22:56.592Z,33.13
2019-04-14T04:25:46.591Z,35.83
2019-04-14T04:28:40.636Z,34.87
2019-04-14T04:31:26.430Z,36.03
2019-04-14T04:34:07.627Z,37.73
2019-04-14T04:36:46.370Z,34.67
2019-04-14T04:39:23.575Z,35.17
2019-04-14T04:41:53.923Z,35.03
2019-04-14T04:44:24.809Z,38.73
2019-04-14T04:46:55.304Z,39.23
2019-04-14T04:49:27.682Z,38.50
2019-04-14T04:51:57.591Z,36.70
2019-04-14T04:54:27.944Z,39.13
2019-04-14T04:56:58.360Z,37.13
2019-04-14T04:59:29.857Z,37.87
2019-04-14T05:02:00.474Z,39.60
2019-04-14T05:04:30.910Z,38.57
2019-04-14T05:07:01.788Z,39.73
2019-04-14T05:09:49.906Z,38.20
2019-04-14T05:12:28.957Z,37.07
2019-04-14T05:15:16.874Z,41.47
2019-04-14T05:17:47.490Z,38.40
2019-04-14T05:20:18.109Z,38.37
2019-04-14T05:22:48.708Z,37.63
2019-04-14T05:25:19.205Z,34.77
2019-04-14T05:27:49.678Z,38.00
2019-04-14T05:30:20.039Z,35.70
2019-04-14T05:32:50.431Z,40.53
2019-04-14T05:35:20.910Z,35.63
2019-04-14T05:37:51.387Z,35.43
2019-04-14T05:40:21.662Z,36.03
2019-04-14T05:42:52.033Z,35.60
2019-04-14T05:45:22.392Z,33.17
2019-04-14T05:47:52.769Z,32.07
2019-04-14T05:50:23.119Z,32.23
2019-04-14T05:52:53.574Z,32.47
2019-04-14T05:55:24.206Z,31.73
2019-04-14T05:57:54.630Z,29.20
2019-04-14T06:00:25.645Z,29.37
2019-04-14T06:02:57.227Z,28.97
2019-04-14T06:05:28.126Z,31.03
2019-04-14T06:07:58.470Z,32.60
2019-04-14T06:10:28.863Z,31.67
2019-04-14T06:12:59.150Z,30.13
2019-04-14T06:15:29.583Z,34.70
2019-04-14T06:17:59.936Z,34.03
2019-04-14T06:20:30.383Z,35.43
2019-04-14T06:23:00.911Z,34.23
2019-04-14T06:25:31.183Z,33.53
2019-04-14T06:28:01.659Z,32.40
2019-04-14T06:30:56.763Z,34.30
2019-04-14T06:33:44.911Z,31.57
2019-04-14T06:36:34.198Z,30.07
2019-04-14T06:39:14.658Z,31.03
2019-04-14T06:41:45.062Z,31.13
2019-04-14T06:44:15.478Z,32.57
2019-04-14T06:46:45.859Z,30.43
2019-04-14T06:49:16.351Z,29.43
2019-04-14T06:51:47.603Z,29.50
2019-04-14T06:54:18.013Z,29.20
2019-04-14T06:56:48.369Z,28.80
2019-04-14T06:59:18.766Z,30.27
2019-04-14T07:01:49.235Z,31.60
2019-04-14T07:04:19.672Z,28.83
2019-04-14T07:06:51.394Z,31.27
2019-04-14T07:09:21.974Z,28.67
2019-04-14T07:11:52.602Z,27.93
2019-04-14T07:14:22.923Z,27.37
2019-04-14T07:16:53.303Z,31.30
2019-04-14T07:19:23.710Z,30.97
2019-04-14T07:21:54.083Z,30.60
2019-04-14T07:24:24.571Z,28.83
2019-04-14T07:26:54.999Z,32.10
2019-04-14T07:29:27.027Z,31.23
2019-04-14T07:32:06.886Z,32.17
2019-04-14T07:34:56.116Z,30.17
2019-04-14T07:37:43.220Z,31.23
2019-04-14T07:40:38.466Z,32.03
2019-04-14T07:43:13.584Z,31.67
2019-04-14T07:45:50.004Z,32.90
2019-04-14T07:48:25.471Z,30.13
2019-04-14T07:51:14.779Z,30.33
2019-04-14T07:53:54.388Z,31.30
2019-04-14T07:56:46.191Z,34.13
2019-04-14T07:59:44.714Z,30.10
2019-04-14T08:02:31.192Z,32.67
2019-04-14T08:05:05.005Z,31.93
2019-04-14T08:07:35.432Z,31.77
2019-04-14T08:10:07.227Z,30.77
2019-04-14T08:12:37.569Z,28.23
2019-04-14T08:15:08.012Z,31.57
2019-04-14T08:17:38.990Z,33.00
2019-04-14T08:20:09.427Z,32.73
2019-04-14T08:22:39.718Z,30.10
2019-04-14T08:25:09.995Z,30.47
2019-04-14T08:27:41.177Z,30.73
2019-04-14T08:30:12.151Z,31.80
2019-04-14T08:32:42.452Z,34.03
2019-04-14T08:35:12.923Z,30.37
2019-04-14T08:37:43.630Z,29.77
2019-04-14T08:40:14.119Z,34.13
2019-04-14T08:42:55.094Z,56.23
2019-04-14T08:45:44.414Z,30.83
2019-04-14T08:48:23.207Z,32.80
2019-04-14T08:51:15.211Z,27.57
2019-04-14T08:53:49.952Z,30.43
2019-04-14T08:56:44.375Z,31.73
2019-04-14T08:59:24.928Z,27.30
2019-04-14T09:02:20.579Z,24.87
2019-04-14T09:05:15.887Z,23.40
2019-04-14T09:07:53.872Z,19.57
2019-04-14T09:10:27.562Z,21.83
2019-04-14T09:12:59.001Z,20.67
2019-04-14T09:15:29.394Z,20.60
2019-04-14T09:17:59.826Z,21.37
2019-04-14T09:20:30.251Z,23.10
2019-04-14T09:23:00.782Z,24.40
2019-04-14T09:25:31.398Z,25.53
2019-04-14T09:28:01.763Z,24.10
2019-04-14T09:30:32.314Z,24.33
2019-04-14T09:33:02.678Z,23.07
2019-04-14T09:35:33.002Z,23.13
2019-04-14T09:38:03.446Z,24.07
2019-04-14T09:40:33.715Z,25.03
2019-04-14T09:43:04.071Z,22.23
2019-04-14T09:45:34.427Z,23.50
2019-04-14T09:48:04.778Z,25.07
2019-04-14T09:50:35.194Z,22.67
2019-04-14T09:53:05.727Z,23.20
2019-04-14T09:55:37.597Z,22.23
2019-04-14T09:58:08.075Z,23.53
2019-04-14T10:00:40.861Z,22.40
2019-04-14T10:03:11.226Z,21.53
2019-04-14T10:05:41.646Z,21.77
2019-04-14T10:08:12.030Z,21.83
2019-04-14T10:10:42.529Z,22.27
2019-04-14T10:13:13.173Z,21.37
2019-04-14T10:15:43.654Z,30.93
2019-04-14T10:18:14.122Z,29.57
2019-04-14T10:20:44.406Z,33.80
2019-04-14T10:23:14.783Z,29.27
2019-04-14T10:25:45.064Z,25.60
2019-04-14T10:28:15.619Z,32.27
2019-04-14T10:30:46.110Z,28.67
2019-04-14T10:33:16.669Z,22.60
2019-04-14T10:35:47.047Z,23.23
2019-04-14T10:38:17.543Z,22.40
2019-04-14T10:40:47.915Z,22.27
2019-04-14T10:43:18.314Z,22.73
2019-04-14T10:45:48.700Z,23.67
2019-04-14T10:48:19.242Z,22.33
2019-04-14T10:50:49.529Z,21.63
2019-04-14T10:53:19.910Z,22.93
2019-04-14T10:55:50.320Z,21.57
2019-04-14T10:58:20.651Z,21.40
2019-04-14T11:00:51.052Z,19.93
2019-04-14T11:03:21.527Z,22.27
2019-04-14T11:06:22.931Z,21.47
2019-04-14T11:08:53.234Z,22.77
2019-04-14T11:11:23.780Z,20.93
2019-04-14T11:13:54.143Z,21.13
2019-04-14T11:16:24.487Z,21.23
2019-04-14T11:18:54.917Z,20.37
2019-04-14T11:21:25.358Z,19.63
2019-04-14T11:23:55.653Z,22.57
2019-04-14T11:26:26.093Z,20.40
2019-04-14T11:28:56.530Z,20.83
2019-04-14T11:31:44.468Z,20.17
2019-04-14T11:34:15.732Z,21.23
2019-04-14T11:37:03.144Z,19.60
2019-04-14T11:39:33.643Z,19.07
2019-04-14T11:42:03.996Z,18.77
2019-04-14T11:44:34.355Z,19.77
2019-04-14T11:47:04.775Z,18.50
2019-04-14T11:49:35.358Z,20.67
2019-04-14T11:52:05.710Z,22.17
2019-04-14T11:54:36.098Z,21.43
2019-04-14T11:57:06.542Z,24.57
2019-04-14T11:59:44.243Z,33.83
2019-04-14T12:02:22.614Z,31.00
2019-04-14T12:05:02.027Z,23.97
2019-04-14T12:07:50.966Z,22.67
2019-04-14T12:10:25.717Z,21.70
2019-04-14T12:12:56.291Z,21.80
2019-04-14T12:15:26.680Z,20.33
2019-04-14T12:17:57.042Z,20.73
2019-04-14T12:20:27.415Z,22.90
2019-04-14T12:22:58.090Z,21.13
2019-04-14T12:25:28.451Z,21.53
2019-04-14T12:27:58.851Z,30.63
2019-04-14T12:30:29.342Z,26.53
2019-04-14T12:32:59.624Z,22.00
2019-04-14T12:35:30.319Z,22.23
2019-04-14T12:38:00.703Z,22.37
2019-04-14T12:40:31.265Z,21.40
2019-04-14T12:43:22.111Z,22.87
2019-04-14T12:46:18.926Z,21.77
2019-04-14T12:48:56.978Z,22.07
2019-04-14T12:51:31.391Z,20.93
2019-04-14T12:54:01.818Z,21.50
2019-04-14T12:56:32.191Z,20.83
2019-04-14T12:59:23.376Z,22.57
2019-04-14T13:02:12.911Z,23.23
2019-04-14T13:04:43.304Z,22.07
2019-04-14T13:07:13.759Z,22.53
2019-04-14T13:09:44.226Z,21.60
2019-04-14T13:12:14.611Z,21.30
2019-04-14T13:14:45.116Z,23.17
2019-04-14T13:17:15.444Z,21.60
2019-04-14T13:19:45.812Z,22.87
2019-04-14T13:22:16.199Z,25.23
2019-04-14T13:24:46.508Z,22.03
2019-04-14T13:27:17.027Z,23.53
2019-04-14T13:29:47.371Z,23.40
2019-04-14T13:32:17.739Z,22.03
2019-04-14T13:34:48.011Z,22.83
2019-04-14T13:37:18.578Z,20.10
2019-04-14T13:39:48.950Z,23.47
2019-04-14T13:42:19.354Z,21.10
2019-04-14T13:44:49.847Z,20.60
2019-04-14T13:47:20.236Z,23.07
2019-04-14T13:49:50.651Z,21.00
2019-04-14T13:52:21.126Z,20.63
2019-04-14T13:54:51.470Z,21.77
2019-04-14T13:57:21.904Z,23.53
2019-04-14T13:59:52.327Z,23.37
2019-04-14T14:02:22.670Z,23.57
2019-04-14T14:04:53.156Z,25.87
2019-04-14T14:07:23.543Z,49.47
2019-04-14T14:09:56.934Z,95.83
2019-04-14T14:12:30.811Z,41.10
2019-04-14T14:15:09.407Z,24.60
2019-04-14T14:17:46.734Z,24.37
2019-04-14T14:20:31.957Z,23.00
2019-04-14T14:23:19.622Z,22.27
2019-04-14T14:25:53.833Z,23.87
2019-04-14T14:28:24.465Z,24.03
2019-04-14T14:30:54.893Z,21.90
2019-04-14T14:33:25.311Z,22.57
2019-04-14T14:35:55.679Z,22.67
2019-04-14T14:38:26.275Z,24.63
2019-04-14T14:40:58.386Z,22.30
2019-04-14T14:43:28.796Z,21.70
2019-04-14T14:46:07.018Z,19.03
2019-04-14T14:48:42.515Z,16.70
2019-04-14T14:51:33.487Z,17.73
2019-04-14T14:54:03.935Z,16.40
2019-04-14T14:56:34.523Z,17.53
2019-04-14T14:59:05.251Z,17.87
2019-04-14T15:01:35.638Z,15.67
2019-04-14T15:04:05.937Z,15.83
2019-04-14T15:06:36.391Z,18.70
2019-04-14T15:09:07.534Z,16.60
2019-04-14T15:11:37.799Z,16.83
2019-04-14T15:14:08.267Z,23.17
2019-04-14T15:16:38.627Z,18.53
2019-04-14T15:19:09.121Z,19.47
2019-04-14T15:21:39.476Z,59.93
2019-04-14T15:24:09.984Z,33.30
2019-04-14T15:26:40.450Z,30.37
2019-04-14T15:29:10.910Z,17.47
2019-04-14T15:31:41.278Z,16.87
2019-04-14T15:34:11.690Z,15.77
2019-04-14T15:36:41.963Z,13.97
2019-04-14T15:39:12.262Z,14.43
2019-04-14T15:41:42.738Z,14.33
2019-04-14T15:44:13.095Z,17.80
2019-04-14T15:46:43.437Z,26.90
2019-04-14T15:49:13.878Z,22.67
2019-04-14T15:51:44.169Z,13.43
2019-04-14T15:54:14.627Z,12.60
2019-04-14T15:57:16.131Z,14.63
2019-04-14T16:00:05.424Z,11.93
2019-04-14T16:02:44.266Z,15.13
2019-04-14T16:05:28.827Z,14.10
2019-04-14T16:08:16.289Z,15.13
2019-04-14T16:11:05.658Z,14.40
2019-04-14T16:14:04.013Z,14.37
2019-04-14T16:17:10.024Z,15.57
2019-04-14T16:20:02.675Z,17.93
2019-04-14T16:22:33.038Z,21.00
2019-04-14T16:25:03.770Z,20.57
2019-04-14T16:27:53.158Z,20.00
2019-04-14T16:30:41.499Z,17.93
2019-04-14T16:33:25.190Z,19.33
2019-04-14T16:35:56.220Z,24.40
2019-04-14T16:38:26.683Z,30.43
2019-04-14T16:40:57.191Z,39.97
2019-04-14T16:43:27.663Z,27.63
2019-04-14T16:45:58.315Z,36.37
2019-04-14T16:48:28.780Z,19.57
2019-04-14T16:50:59.953Z,31.83
2019-04-14T16:53:33.754Z,21.33
2019-04-14T16:56:16.555Z,18.60
2019-04-14T16:58:50.779Z,20.93
2019-04-14T17:01:28.455Z,25.37
2019-04-14T17:03:58.827Z,25.87
2019-04-14T17:06:29.294Z,25.00
2019-04-14T17:08:59.671Z,27.30
2019-04-14T17:11:30.145Z,25.47
2019-04-14T17:14:05.414Z,24.10
2019-04-14T17:17:09.864Z,27.87
2019-04-14T17:20:05.123Z,28.27
2019-04-14T17:22:47.643Z,30.07
2019-04-14T17:25:34.274Z,32.87
2019-04-14T17:28:22.233Z,94.07
2019-04-14T17:31:00.035Z,159.47
2019-04-14T17:33:45.182Z,139.83
2019-04-14T17:36:33.019Z,152.90
2019-04-14T17:39:11.314Z,110.13
2019-04-14T17:41:47.367Z,57.67
2019-04-14T17:44:42.701Z,41.73
2019-04-14T17:47:31.659Z,30.17
2019-04-14T17:50:18.448Z,28.97
2019-04-14T17:52:57.407Z,31.73
2019-04-14T17:55:50.363Z,29.67
2019-04-14T17:58:28.948Z,30.73
2019-04-14T18:01:22.930Z,31.83
2019-04-14T18:04:00.261Z,25.93
2019-04-14T18:06:41.756Z,28.63
2019-04-14T18:09:24.334Z,25.60
2019-04-14T18:12:03.958Z,53.60
2019-04-14T18:15:11.989Z,64.07
2019-04-14T18:17:54.713Z,49.10
2019-04-14T18:20:35.258Z,31.60
2019-04-14T18:23:05.658Z,30.60
2019-04-14T18:25:36.359Z,26.33
2019-04-14T18:28:40.956Z,27.23
2019-04-14T18:31:42.648Z,27.40
2019-04-14T18:34:32.126Z,25.97
2019-04-14T18:37:20.307Z,27.93
2019-04-14T18:40:09.112Z,62.57
2019-04-14T18:42:58.628Z,46.50
2019-04-14T18:45:51.229Z,44.17
2019-04-14T18:48:32.991Z,40.83
2019-04-14T18:51:14.063Z,28.87
2019-04-14T18:53:58.014Z,26.30
2019-04-14T18:56:48.700Z,28.50
2019-04-14T18:59:35.986Z,26.70
2019-04-14T19:02:06.784Z,29.00
2019-04-14T19:04:37.074Z,28.83
2019-04-14T19:07:07.559Z,28.20
2019-04-14T19:09:38.094Z,27.53
2019-04-14T19:12:26.022Z,27.43
2019-04-14T19:15:02.593Z,27.73
2019-04-14T19:17:51.882Z,26.70
2019-04-14T19:20:22.792Z,26.57
2019-04-14T19:22:53.976Z,28.27
2019-04-14T19:25:24.378Z,25.40
2019-04-14T19:27:54.822Z,23.80
2019-04-14T19:30:25.263Z,23.10
2019-04-14T19:32:55.671Z,23.60
2019-04-14T19:35:26.957Z,26.07
2019-04-14T19:37:57.488Z,30.87
2019-04-14T19:40:27.985Z,33.97
2019-04-14T19:42:58.353Z,34.50
2019-04-14T19:45:28.891Z,35.40
2019-04-14T19:47:59.452Z,32.20
2019-04-14T19:50:29.886Z,29.83
2019-04-14T19:53:00.434Z,31.87
2019-04-14T19:55:30.846Z,38.37
2019-04-14T19:58:01.222Z,35.73
2019-04-14T20:00:31.716Z,30.77
2019-04-14T20:03:02.120Z,37.47
2019-04-14T20:05:32.695Z,36.07
2019-04-14T20:08:03.102Z,36.00
2019-04-14T20:10:33.703Z,32.93
2019-04-14T20:13:04.108Z,36.23
2019-04-14T20:15:45.877Z,34.67
2019-04-14T20:18:28.784Z,33.07
2019-04-14T20:21:19.058Z,34.37
2019-04-14T20:24:01.882Z,37.07
2019-04-14T20:26:52.082Z,39.20
2019-04-14T20:29:26.078Z,40.70
2019-04-14T20:32:00.827Z,39.17
2019-04-14T20:34:31.368Z,36.60
2019-04-14T20:37:01.959Z,28.83
2019-04-14T20:39:33.133Z,25.33
2019-04-14T20:42:03.791Z,28.20
2019-04-14T20:44:34.205Z,29.20
2019-04-14T20:47:06.160Z,23.80
2019-04-14T20:49:36.599Z,22.83
2019-04-14T20:52:07.086Z,24.87
2019-04-14T20:54:37.547Z,25.57
2019-04-14T20:57:08.262Z,26.10
2019-04-14T20:59:38.935Z,26.90
2019-04-14T21:02:43.864Z,26.73
2019-04-14T21:05:36.058Z,21.07
2019-04-14T21:08:28.295Z,16.47
2019-04-14T21:11:06.260Z,17.27
2019-04-14T21:13:46.451Z,15.70
2019-04-14T21:16:44.680Z,16.33
2019-04-14T21:19:22.023Z,17.67
2019-04-14T21:22:01.868Z,17.20
2019-04-14T21:24:45.572Z,13.30
2019-04-14T21:27:21.541Z,11.70
2019-04-14T21:30:10.908Z,10.67
2019-04-14T21:32:59.346Z,10.50
2019-04-14T21:35:51.695Z,10.13
2019-04-14T21:38:53.319Z,10.13
2019-04-14T21:41:29.210Z,9.33
2019-04-14T21:44:00.355Z,9.40
2019-04-14T21:46:30.843Z,9.63
2019-04-14T21:49:01.449Z,7.43
2019-04-14T21:51:59.791Z,8.03
2019-04-14T21:54:32.228Z,7.90
2019-04-14T21:57:23.046Z,7.83
2019-04-14T22:00:06.111Z,7.27
2019-04-14T22:03:04.530Z,7.97
2019-04-14T22:05:58.432Z,9.97
2019-04-14T22:08:31.961Z,12.03
2019-04-14T22:11:05.880Z,10.60
2019-04-14T22:13:36.367Z,11.90
2019-04-14T22:16:07.111Z,10.70
2019-04-14T22:18:37.479Z,7.93
2019-04-14T22:21:07.897Z,6.67
2019-04-14T22:23:38.331Z,7.17
2019-04-14T22:26:08.812Z,5.80
2019-04-14T22:28:39.237Z,7.07
2019-04-14T22:31:09.763Z,5.60
2019-04-14T22:33:40.158Z,6.90
2019-04-14T22:36:10.677Z,6.10
2019-04-14T22:38:41.293Z,7.00
2019-04-14T22:41:11.705Z,6.87
2019-04-14T22:43:42.090Z,5.00
2019-04-14T22:46:13.995Z,4.73
2019-04-14T22:48:44.475Z,5.10
2019-04-14T22:51:15.059Z,5.77
2019-04-14T22:53:45.672Z,5.07
2019-04-14T22:56:17.699Z,3.97
2019-04-14T22:58:48.135Z,4.00
2019-04-14T23:01:25.775Z,4.23
2019-04-14T23:04:13.762Z,5.20
2019-04-14T23:07:06.075Z,4.10
2019-04-14T23:09:49.461Z,4.10
2019-04-14T23:12:45.128Z,3.50
2019-04-14T23:15:25.497Z,3.00
2019-04-14T23:18:09.177Z,3.83
2019-04-14T23:20:56.048Z,3.30
2019-04-14T23:23:32.115Z,3.50
2019-04-14T23:26:04.479Z,3.30
2019-04-14T23:28:35.078Z,3.50
2019-04-14T23:31:05.455Z,3.37
2019-04-14T23:33:35.904Z,3.50
2019-04-14T23:36:06.252Z,3.90
2019-04-14T23:38:37.107Z,4.00
2019-04-14T23:41:07.434Z,3.70
2019-04-14T23:43:37.876Z,3.80
2019-04-14T23:46:08.324Z,5.00
2019-04-14T23:48:38.674Z,5.07
2019-04-14T23:51:09.276Z,3.87
2019-04-14T23:53:39.610Z,5.63
2019-04-14T23:56:09.986Z,4.53
2019-04-14T23:58:40.502Z,4.70
